Time;durP1;ratioP1;P1;durP2;ratioP2;P2;SDS_P1;SDS_P2;PMS_P1;PMS_P2;Temp;Humidity;BMP_temperature;BMP_pressure;BME280_temperature;BME280_humidity;BME280_pressure;Samples;Min_cycle;Max_cycle;Signal;HPM_P1;HPM_P2
2022/04/06 00:00:08;;;;;;;27.88;14.43;;;9.40;99.90;;;;;;5045801;28;20284;-51
2022/04/06 00:02:37;;;;;;;30.35;15.55;;;9.40;99.90;;;;;;5034439;28;20038;-50
2022/04/06 00:05:04;;;;;;;30.55;15.05;;;9.40;99.90;;;;;;5032886;28;20637;-50
2022/04/06 00:07:29;;;;;;;;;;;9.40;99.90;;;;;;5049031;28;20039;-49
2022/04/06 00:09:55;;;;;;;27.77;14.52;;;9.40;99.90;;;;;;5046453;28;20004;-51
2022/04/06 00:12:21;;;;;;;30.33;14.17;;;9.40;99.90;;;;;;5033276;28;20562;-52
2022/04/06 00:14:47;;;;;;;33.03;14.95;;;9.40;99.90;;;;;;5041551;28;20033;-51
2022/04/06 00:17:13;;;;;;;27.42;15.32;;;9.30;99.90;;;;;;5040824;28;20052;-53
2022/04/06 00:19:39;;;;;;;32.10;13.68;;;9.40;99.90;;;;;;5034188;28;20044;-49
2022/04/06 00:22:05;;;;;;;32.10;15.10;;;9.30;99.90;;;;;;5052845;28;20045;-51
2022/04/06 00:24:31;;;;;;;33.72;16.10;;;9.30;99.90;;;;;;5037571;28;20482;-52
2022/04/06 00:26:57;;;;;;;35.53;15.90;;;9.30;99.90;;;;;;5040973;28;20040;-51
2022/04/06 00:29:22;;;;;;;31.07;15.83;;;9.30;99.90;;;;;;5036267;28;20064;-52
2022/04/06 00:31:48;;;;;;;40.70;15.52;;;9.30;99.90;;;;;;5048512;28;20284;-53
2022/04/06 00:34:14;;;;;;;33.95;17.85;;;9.30;99.90;;;;;;5039858;28;20041;-53
2022/04/06 00:36:39;;;;;;;32.63;16.37;;;9.30;99.90;;;;;;5040114;28;20043;-52
2022/04/06 00:39:05;;;;;;;35.50;14.23;;;9.30;99.90;;;;;;5035347;28;20048;-49
2022/04/06 00:41:31;;;;;;;30.05;13.15;;;9.30;99.90;;;;;;5048587;28;20036;-50
2022/04/06 00:44:17;;;;;;;32.03;13.80;;;9.30;99.90;;;;;;5041795;28;20037;-50
2022/04/06 00:46:45;;;;;;;30.00;14.25;;;9.30;99.90;;;;;;5048041;28;20295;-48
2022/04/06 00:49:14;;;;;;;27.60;12.38;;;9.30;99.90;;;;;;5032720;28;20046;-49
2022/04/06 00:51:42;;;;;;;29.10;11.90;;;9.30;99.90;;;;;;5033011;28;20037;-48
2022/04/06 00:54:08;;;;;;;22.63;13.20;;;9.40;99.90;;;;;;5038298;28;20108;-48
2022/04/06 00:56:35;;;;;;;27.98;11.85;;;9.40;99.90;;;;;;5051801;28;20043;-48
2022/04/06 00:59:01;;;;;;;;;;;9.40;99.90;;;;;;5034144;28;20045;-48
2022/04/06 01:01:27;;;;;;;23.63;9.95;;;9.40;99.90;;;;;;5041251;28;19952;-48
2022/04/06 01:03:52;;;;;;;29.33;11.97;;;9.40;99.90;;;;;;5050833;28;20076;-49
2022/04/06 01:06:20;;;;;;;27.93;12.13;;;9.40;99.90;;;;;;5032107;28;20103;-49
2022/04/06 01:08:46;;;;;;;32.08;11.90;;;9.40;99.90;;;;;;5048272;28;20430;-50
2022/04/06 01:11:11;;;;;;;26.73;10.40;;;9.40;99.90;;;;;;5045327;28;20052;-49
2022/04/06 01:13:37;;;;;;;26.67;10.43;;;9.40;99.90;;;;;;5033098;28;20091;-50
2022/04/06 01:16:03;;;;;;;23.42;11.07;;;9.40;99.90;;;;;;5031649;28;20041;-48
2022/04/06 01:18:32;;;;;;;25.25;11.10;;;9.40;99.90;;;;;;5043818;28;20041;-48
2022/04/06 01:20:57;;;;;;;31.00;11.85;;;9.40;99.90;;;;;;5045830;28;20040;-48
2022/04/06 01:23:23;;;;;;;25.97;12.20;;;9.40;99.90;;;;;;5048644;28;20047;-48
2022/04/06 01:25:49;;;;;;;28.33;10.37;;;9.40;99.90;;;;;;5046480;28;20072;-48
2022/04/06 01:28:15;;;;;;;;;;;9.40;99.90;;;;;;5039599;28;20036;-51
2022/04/06 01:30:40;;;;;;;30.42;11.80;;;9.40;99.90;;;;;;5050192;28;19923;-49
2022/04/06 01:33:06;;;;;;;22.45;9.98;;;9.40;99.90;;;;;;5049584;28;20043;-51
2022/04/06 01:35:38;;;;;;;27.65;10.60;;;9.40;99.90;;;;;;5040965;28;20068;-48
2022/04/06 01:38:06;;;;;;;30.40;10.35;;;9.40;99.90;;;;;;5048689;28;20036;-49
2022/04/06 01:40:33;;;;;;;26.90;9.65;;;9.40;99.90;;;;;;5047663;28;20048;-49
2022/04/06 01:42:58;;;;;;;26.02;10.38;;;9.40;99.90;;;;;;5040577;28;20115;-49
2022/04/06 01:45:24;;;;;;;25.45;10.65;;;9.40;99.90;;;;;;5034579;28;20112;-49
2022/04/06 01:47:50;;;;;;;23.05;9.52;;;9.40;99.90;;;;;;5048696;28;20041;-49
2022/04/06 01:52:59;;;;;;;16.45;8.70;;;9.40;99.90;;;;;;5033759;28;20046;-48
2022/04/06 01:55:25;;;;;;;31.10;10.23;;;9.40;99.90;;;;;;5034277;28;20045;-49
2022/04/06 01:57:51;;;;;;;30.67;10.75;;;9.40;99.90;;;;;;5049699;28;20037;-49
2022/04/06 02:00:18;;;;;;;25.33;10.27;;;9.40;99.90;;;;;;5050159;28;20033;-52
2022/04/06 02:02:49;;;;;;;19.70;9.00;;;9.30;99.90;;;;;;5039907;28;20042;-48
2022/04/06 02:05:16;;;;;;;23.65;10.63;;;9.40;99.90;;;;;;5041932;28;20041;-51
2022/04/06 02:07:42;;;;;;;29.20;10.93;;;9.40;99.90;;;;;;5041814;28;20049;-48
2022/04/06 02:10:08;;;;;;;26.05;10.80;;;9.40;99.90;;;;;;5030451;28;20083;-52
2022/04/06 02:12:34;;;;;;;22.42;8.50;;;9.40;99.90;;;;;;5048244;28;20068;-51
2022/04/06 02:15:00;;;;;;;24.75;9.40;;;9.40;99.90;;;;;;5048038;28;20064;-48
2022/04/06 02:17:28;;;;;;;21.15;9.30;;;9.40;99.90;;;;;;5047698;28;20037;-51
2022/04/06 02:19:54;;;;;;;21.13;8.15;;;9.40;99.90;;;;;;5030651;28;20380;-48
2022/04/06 02:22:20;;;;;;;;;;;9.30;99.90;;;;;;5043844;28;20044;-52
2022/04/06 02:24:46;;;;;;;22.35;7.63;;;9.40;99.90;;;;;;5037110;28;19921;-50
2022/04/06 02:27:11;;;;;;;24.05;7.93;;;9.40;99.90;;;;;;5032653;28;20100;-50
2022/04/06 02:29:39;;;;;;;22.63;7.97;;;9.40;99.90;;;;;;5031005;28;20045;-52
2022/04/06 02:32:05;;;;;;;24.80;8.60;;;9.40;99.90;;;;;;5040784;28;20498;-50
2022/04/06 02:34:31;;;;;;;32.05;8.70;;;9.40;99.90;;;;;;5049066;28;20075;-50
2022/04/06 02:36:57;;;;;;;19.65;8.02;;;9.40;99.90;;;;;;5047463;28;20101;-51
2022/04/06 02:39:22;;;;;;;21.13;7.20;;;9.40;99.90;;;;;;5035273;28;20045;-51
2022/04/06 02:41:48;;;;;;;25.63;8.00;;;9.40;99.90;;;;;;5043348;28;20033;-52
2022/04/06 02:44:15;;;;;;;22.60;8.27;;;9.40;99.90;;;;;;5037604;28;20048;-52
2022/04/06 02:46:41;;;;;;;18.73;8.00;;;9.40;99.90;;;;;;5031751;28;20029;-52
2022/04/06 02:49:06;;;;;;;17.45;8.15;;;9.40;99.90;;;;;;5029022;28;20033;-48
2022/04/06 02:51:32;;;;;;;26.50;9.33;;;9.40;99.90;;;;;;5045343;28;20094;-50
2022/04/06 02:53:58;;;;;;;21.70;8.57;;;9.40;99.90;;;;;;5040981;28;20522;-49
2022/04/06 02:56:23;;;;;;;19.80;8.63;;;9.40;99.90;;;;;;5032942;28;20094;-51
2022/04/06 02:58:49;;;;;;;25.30;9.67;;;9.40;99.90;;;;;;5047938;28;20036;-48
2022/04/06 03:01:15;;;;;;;26.07;9.53;;;9.40;99.90;;;;;;5035398;28;20095;-50
2022/04/06 03:03:40;;;;;;;21.63;9.03;;;9.40;99.90;;;;;;5032959;28;20448;-51
2022/04/06 03:06:07;;;;;;;20.87;9.57;;;9.50;99.90;;;;;;5048995;28;20822;-49
2022/04/06 03:08:33;;;;;;;22.83;9.63;;;9.40;99.90;;;;;;5047896;28;20275;-51
2022/04/06 03:10:59;;;;;;;30.00;12.10;;;9.50;99.90;;;;;;5037401;28;20124;-49
2022/04/06 03:13:25;;;;;;;22.15;11.85;;;9.40;99.90;;;;;;5049186;28;20053;-48
2022/04/06 03:15:51;;;;;;;22.23;11.75;;;9.50;99.90;;;;;;5031495;28;20048;-48
2022/04/06 03:18:16;;;;;;;24.80;12.70;;;9.50;99.90;;;;;;5036186;28;20122;-48
2022/04/06 03:20:42;;;;;;;23.67;11.43;;;9.50;99.90;;;;;;5046468;28;20171;-48
2022/04/06 03:23:08;;;;;;;30.47;11.47;;;9.50;99.90;;;;;;5049525;28;20085;-49
2022/04/06 03:25:34;;;;;;;;;;;9.50;99.90;;;;;;5036659;28;20049;-50
2022/04/06 03:27:59;;;;;;;27.83;12.95;;;9.50;99.90;;;;;;5037841;28;19923;-49
2022/04/06 03:30:25;;;;;;;35.80;13.50;;;9.50;99.90;;;;;;5034625;28;20038;-48
2022/04/06 03:32:50;;;;;;;30.98;14.25;;;9.50;99.90;;;;;;5029653;28;20042;-49
2022/04/06 03:35:16;;;;;;;29.60;13.03;;;9.50;99.90;;;;;;5031057;28;20087;-49
2022/04/06 03:37:41;;;;;;;32.00;14.13;;;9.50;99.90;;;;;;5048370;28;20116;-49
2022/04/06 03:40:08;;;;;;;32.00;14.53;;;9.50;99.90;;;;;;5037021;28;20067;-48
2022/04/06 03:42:34;;;;;;;35.38;15.05;;;9.50;99.90;;;;;;5040029;28;20125;-50
2022/04/06 03:45:00;;;;;;;29.00;13.02;;;9.50;99.90;;;;;;5030521;28;20497;-51
2022/04/06 03:47:33;;;;;;;25.55;14.15;;;9.50;99.90;;;;;;5048567;28;20044;-49
2022/04/06 03:49:59;;;;;;;31.45;15.80;;;9.50;99.90;;;;;;5040078;28;20038;-48
2022/04/06 03:52:25;;;;;;;;;;;9.50;99.90;;;;;;5029892;28;20042;-48
2022/04/06 03:54:52;;;;;;;29.80;13.70;;;9.50;99.90;;;;;;5049113;28;20137;-51
2022/04/06 03:57:17;;;;;;;23.92;12.65;;;9.50;99.90;;;;;;5032120;28;20045;-49
2022/04/06 03:59:43;;;;;;;38.47;13.65;;;9.50;99.90;;;;;;5030765;28;20514;-48
2022/04/06 04:02:09;;;;;;;28.60;15.10;;;9.50;99.90;;;;;;5031718;28;20034;-48
2022/04/06 04:04:35;;;;;;;27.25;13.07;;;9.50;99.90;;;;;;5048316;28;20174;-52
2022/04/06 04:07:01;;;;;;;24.60;12.03;;;9.50;99.90;;;;;;5039497;28;20037;-51
2022/04/06 04:09:30;;;;;;;27.27;11.80;;;9.50;99.90;;;;;;5034244;28;20037;-48
2022/04/06 04:11:56;;;;;;;28.02;13.25;;;9.50;99.90;;;;;;5047627;28;20029;-48
2022/04/06 04:14:25;;;;;;;28.35;12.25;;;9.50;99.90;;;;;;5037455;28;20139;-49
2022/04/06 04:16:51;;;;;;;25.65;12.48;;;9.50;99.90;;;;;;5036660;28;20045;-51
2022/04/06 04:19:17;;;;;;;24.45;13.20;;;9.50;99.90;;;;;;5035946;28;20025;-49
2022/04/06 04:21:43;;;;;;;25.67;11.90;;;9.50;99.90;;;;;;5045877;28;20110;-50
2022/04/06 04:24:09;;;;;;;25.08;12.48;;;9.40;99.90;;;;;;5052526;28;20386;-49
2022/04/06 04:26:36;;;;;;;26.40;10.45;;;9.40;99.90;;;;;;5037959;28;20049;-52
2022/04/06 04:29:03;;;;;;;23.55;10.27;;;9.40;99.90;;;;;;5043103;28;20502;-52
2022/04/06 04:31:29;;;;;;;21.90;10.60;;;9.40;99.90;;;;;;5033984;28;20040;-51
2022/04/06 04:33:56;;;;;;;21.97;10.20;;;9.40;99.90;;;;;;5034119;28;20045;-50
2022/04/06 04:36:22;;;;;;;22.80;10.90;;;9.40;99.90;;;;;;5040075;28;20116;-52
2022/04/06 04:38:47;;;;;;;24.65;10.90;;;9.40;99.90;;;;;;5053065;28;20125;-53
2022/04/06 04:41:13;;;;;;;28.45;11.43;;;9.40;99.90;;;;;;5036990;28;20053;-49
2022/04/06 04:43:39;;;;;;;24.02;10.25;;;9.40;99.90;;;;;;5032687;28;20033;-50
2022/04/06 04:46:05;;;;;;;21.20;9.17;;;9.40;99.90;;;;;;5038537;28;20037;-52
2022/04/06 04:48:31;;;;;;;23.13;10.93;;;9.40;99.90;;;;;;5049513;28;20147;-50
2022/04/06 04:50:57;;;;;;;27.88;11.20;;;9.40;99.90;;;;;;5030775;28;20049;-52
2022/04/06 04:53:23;;;;;;;26.23;8.73;;;9.40;99.90;;;;;;5043309;28;20116;-52
2022/04/06 04:55:49;;;;;;;22.88;10.55;;;9.40;99.90;;;;;;5043220;28;20056;-52
2022/04/06 04:58:15;;;;;;;25.40;11.23;;;9.30;99.90;;;;;;5032386;28;20038;-52
2022/04/06 05:00:40;;;;;;;23.47;10.47;;;9.30;99.90;;;;;;5033417;28;20179;-52
2022/04/06 05:03:06;;;;;;;20.37;9.93;;;9.30;99.90;;;;;;5037330;28;20039;-48
2022/04/06 05:05:32;;;;;;;25.87;10.37;;;9.30;99.90;;;;;;5047586;28;20470;-48
2022/04/06 05:07:59;;;;;;;16.58;8.55;;;9.30;99.90;;;;;;5033100;28;20034;-51
2022/04/06 05:10:25;;;;;;;23.02;9.10;;;9.30;99.90;;;;;;5033350;28;20248;-49
2022/04/06 05:12:52;;;;;;;23.30;9.95;;;9.30;99.90;;;;;;5040129;28;20144;-50
2022/04/06 05:15:19;;;;;;;23.90;9.40;;;9.30;99.90;;;;;;5032844;28;20099;-49
2022/04/06 05:17:45;;;;;;;18.50;8.38;;;9.30;99.90;;;;;;5037730;28;20041;-49
2022/04/06 05:20:11;;;;;;;21.27;8.27;;;9.30;99.90;;;;;;5044588;28;20033;-50
2022/04/06 05:22:37;;;;;;;22.48;10.32;;;9.30;99.90;;;;;;5040539;28;20091;-50
2022/04/06 05:25:04;;;;;;;18.20;7.63;;;9.30;99.90;;;;;;5048827;28;20029;-50
2022/04/06 05:27:31;;;;;;;20.13;7.57;;;9.30;99.90;;;;;;5049810;28;20366;-49
2022/04/06 05:29:57;;;;;;;13.45;6.60;;;9.20;99.90;;;;;;5049440;28;20037;-50
2022/04/06 05:32:23;;;;;;;20.65;6.43;;;9.20;99.90;;;;;;5034420;28;20042;-50
2022/04/06 05:34:48;;;;;;;16.03;6.60;;;9.20;99.90;;;;;;5031925;28;20074;-50
2022/04/06 05:37:14;;;;;;;18.27;6.50;;;9.20;99.90;;;;;;5032558;28;20435;-51
2022/04/06 05:39:39;;;;;;;17.20;6.20;;;9.20;99.90;;;;;;5049444;28;20042;-49
2022/04/06 05:42:06;;;;;;;11.63;5.37;;;9.20;99.90;;;;;;5033114;28;20045;-51
2022/04/06 05:44:31;;;;;;;14.57;5.90;;;9.20;99.90;;;;;;5039198;28;20038;-51
2022/04/06 05:46:57;;;;;;;14.67;4.87;;;9.20;99.90;;;;;;5032216;28;20029;-49
2022/04/06 05:49:22;;;;;;;19.20;5.67;;;9.20;99.90;;;;;;5036982;28;20138;-49
2022/04/06 05:51:49;;;;;;;14.20;4.80;;;9.20;99.90;;;;;;5050869;28;20045;-49
2022/04/06 05:54:14;;;;;;;;;;;9.20;99.90;;;;;;5034736;28;20044;-49
2022/04/06 05:56:40;;;;;;;15.70;4.60;;;9.20;99.90;;;;;;5035083;28;20102;-50
2022/04/06 05:59:06;;;;;;;13.77;4.37;;;9.20;99.90;;;;;;5048072;28;20120;-49
2022/04/06 06:01:32;;;;;;;;;;;9.20;99.90;;;;;;5050928;28;20648;-50
2022/04/06 06:03:57;;;;;;;16.10;3.65;;;9.20;99.90;;;;;;5036646;28;19924;-50
2022/04/06 06:06:23;;;;;;;16.30;4.00;;;9.20;99.90;;;;;;5038565;28;20041;-50
2022/04/06 06:08:49;;;;;;;9.17;3.33;;;9.20;99.90;;;;;;5047004;28;20032;-53
2022/04/06 06:11:14;;;;;;;10.23;3.00;;;9.20;99.90;;;;;;5030857;28;20048;-53
2022/04/06 06:13:40;;;;;;;11.68;4.22;;;9.20;99.90;;;;;;5042026;28;20036;-51
2022/04/06 06:16:05;;;;;;;7.07;2.17;;;9.20;99.90;;;;;;5049449;28;20082;-49
2022/04/06 06:18:31;;;;;;;10.80;3.00;;;9.20;99.90;;;;;;5046467;28;20051;-49
2022/04/06 06:20:59;;;;;;;9.03;2.87;;;9.20;99.90;;;;;;5038813;28;20037;-49
2022/04/06 06:23:24;;;;;;;6.88;1.38;;;9.30;99.90;;;;;;5030611;28;20072;-50
2022/04/06 06:25:50;;;;;;;6.50;1.53;;;9.30;99.90;;;;;;5045283;28;20041;-50
2022/04/06 06:28:15;;;;;;;6.07;1.87;;;9.30;99.90;;;;;;5047785;28;20040;-49
2022/04/06 06:30:42;;;;;;;8.60;2.93;;;9.30;99.90;;;;;;5049739;28;20037;-49
2022/04/06 06:33:07;;;;;;;;;;;9.30;99.90;;;;;;5038205;28;20052;-53
2022/04/06 06:35:33;;;;;;;9.18;1.40;;;9.30;99.90;;;;;;5041295;28;19917;-53
2022/04/06 06:37:58;;;;;;;8.23;1.53;;;9.30;99.90;;;;;;5030322;28;20048;-54
2022/04/06 06:40:26;;;;;;;10.87;2.43;;;9.30;99.90;;;;;;5034972;28;20072;-49
2022/04/06 06:42:52;;;;;;;8.40;1.85;;;9.30;99.90;;;;;;5042997;28;20493;-53
2022/04/06 06:45:18;;;;;;;12.00;2.40;;;9.30;99.90;;;;;;5035248;28;20033;-51
2022/04/06 06:47:45;;;;;;;7.43;1.42;;;9.30;99.90;;;;;;5040145;28;20052;-49
2022/04/06 06:50:11;;;;;;;;;;;9.30;99.90;;;;;;5042975;28;20383;-49
2022/04/06 06:52:37;;;;;;;8.73;1.77;;;9.30;99.90;;;;;;5035396;28;19947;-50
2022/04/06 06:55:04;;;;;;;9.38;1.95;;;9.30;99.90;;;;;;5046887;28;20041;-54
2022/04/06 06:57:29;;;;;;;6.88;1.45;;;9.30;99.90;;;;;;5030217;28;20037;-54
2022/04/06 06:59:55;;;;;;;10.73;2.70;;;9.30;99.90;;;;;;5043180;28;20133;-54
2022/04/06 07:02:21;;;;;;;8.77;1.97;;;9.30;99.90;;;;;;5049667;28;20391;-52
2022/04/06 07:04:47;;;;;;;10.70;2.60;;;9.30;99.90;;;;;;5036796;28;20597;-55
2022/04/06 07:07:12;;;;;;;16.52;2.35;;;9.30;99.90;;;;;;5038229;28;20048;-50
2022/04/06 07:09:38;;;;;;;8.05;2.28;;;9.20;99.90;;;;;;5039199;28;20087;-53
2022/04/06 07:12:04;;;;;;;9.70;2.70;;;9.20;99.90;;;;;;5038574;28;20042;-54
2022/04/06 07:14:29;;;;;;;6.17;1.97;;;9.20;99.90;;;;;;5029995;28;20276;-54
2022/04/06 07:16:56;;;;;;;9.13;2.00;;;9.20;99.90;;;;;;5044190;28;20690;-50
2022/04/06 07:19:21;;;;;;;12.40;2.00;;;9.20;99.90;;;;;;5045356;28;20280;-49
2022/04/06 07:21:47;;;;;;;9.70;2.27;;;9.20;99.90;;;;;;5030522;28;20048;-50
2022/04/06 07:24:12;;;;;;;6.80;2.77;;;9.20;99.90;;;;;;5039573;28;20336;-53
2022/04/06 07:26:38;;;;;;;11.60;2.40;;;9.20;99.90;;;;;;5045492;28;20037;-50
2022/04/06 07:29:04;;;;;;;11.80;3.08;;;9.20;99.90;;;;;;5030472;28;20033;-51
2022/04/06 07:31:29;;;;;;;11.53;3.03;;;9.20;99.90;;;;;;5041489;28;20122;-50
2022/04/06 07:33:55;;;;;;;8.10;2.70;;;9.20;99.90;;;;;;5042048;28;20046;-50
2022/04/06 07:36:20;;;;;;;8.13;2.43;;;9.30;99.90;;;;;;5029834;28;20124;-49
2022/04/06 07:38:46;;;;;;;8.73;2.93;;;9.30;99.90;;;;;;5042752;28;20041;-49
2022/04/06 07:41:11;;;;;;;15.10;4.33;;;9.30;99.90;;;;;;5040834;28;20029;-49
2022/04/06 07:43:37;;;;;;;11.77;3.83;;;9.30;99.90;;;;;;5033775;28;20048;-49
2022/04/06 07:46:02;;;;;;;12.33;5.33;;;9.30;99.90;;;;;;5040111;28;20461;-51
2022/04/06 07:48:30;;;;;;;11.27;4.80;;;9.40;99.90;;;;;;5049442;28;20564;-50
2022/04/06 07:50:55;;;;;;;19.45;5.93;;;9.40;99.90;;;;;;5032630;28;20418;-49
2022/04/06 07:53:21;;;;;;;17.37;4.27;;;9.40;99.90;;;;;;5032635;28;20048;-50
2022/04/06 07:55:49;;;;;;;14.13;6.20;;;9.40;99.90;;;;;;5027405;28;20034;-49
2022/04/06 07:58:15;;;;;;;17.05;4.53;;;9.40;99.90;;;;;;5041014;28;20059;-53
2022/04/06 08:00:41;;;;;;;10.50;5.47;;;9.40;99.90;;;;;;5041851;28;20037;-50
2022/04/06 08:03:07;;;;;;;15.70;5.60;;;9.40;99.90;;;;;;5036219;28;20387;-50
2022/04/06 08:05:33;;;;;;;9.60;5.28;;;9.40;99.90;;;;;;5040156;28;20044;-50
2022/04/06 08:07:59;;;;;;;14.80;5.53;;;9.40;99.90;;;;;;5040888;28;20443;-52
2022/04/06 08:10:24;;;;;;;15.63;5.57;;;9.40;99.90;;;;;;5027125;28;20288;-51
2022/04/06 08:12:50;;;;;;;14.68;6.20;;;9.40;99.90;;;;;;5036959;28;20041;-49
2022/04/06 08:15:16;;;;;;;16.05;5.63;;;9.50;99.90;;;;;;5033715;28;20041;-49
2022/04/06 08:17:44;;;;;;;17.17;7.97;;;9.50;99.90;;;;;;5034272;28;20033;-51
2022/04/06 08:20:11;;;;;;;21.60;7.53;;;9.50;99.90;;;;;;5028818;28;20041;-49
2022/04/06 08:22:38;;;;;;;18.02;6.47;;;9.60;99.90;;;;;;5027335;28;20037;-50
2022/04/06 08:25:10;;;;;;;16.83;7.68;;;9.60;99.90;;;;;;5041721;28;20120;-50
2022/04/06 08:27:39;;;;;;;16.58;8.18;;;9.60;99.90;;;;;;5041064;28;20033;-50
2022/04/06 08:30:06;;;;;;;20.77;7.97;;;9.60;99.90;;;;;;5032616;28;20039;-50
2022/04/06 08:32:32;;;;;;;18.80;6.75;;;9.60;99.90;;;;;;5033970;28;20683;-51
2022/04/06 08:34:58;;;;;;;19.55;6.28;;;9.60;99.90;;;;;;5033056;28;20037;-52
2022/04/06 08:37:38;;;;;;;13.45;6.38;;;9.60;99.90;;;;;;5027376;28;20038;-49
2022/04/06 08:40:06;;;;;;;19.65;7.20;;;9.60;99.90;;;;;;5045190;28;20036;-50
2022/04/06 08:42:41;;;;;;;13.50;5.07;;;9.70;99.90;;;;;;5040174;28;20064;-50
2022/04/06 08:45:08;;;;;;;15.52;6.40;;;9.70;99.90;;;;;;5038333;28;20288;-52
2022/04/06 08:47:34;;;;;;;19.60;4.90;;;9.70;99.90;;;;;;5045466;28;20033;-50
2022/04/06 08:50:04;;;;;;;12.70;4.10;;;9.70;99.90;;;;;;5039563;28;20033;-49
2022/04/06 08:52:35;;;;;;;14.40;5.32;;;9.70;99.90;;;;;;5032251;28;20037;-50
2022/04/06 08:55:01;;;;;;;9.38;3.90;;;9.80;99.90;;;;;;5040218;28;20041;-49
2022/04/06 08:57:27;;;;;;;10.90;3.55;;;9.90;99.90;;;;;;5035536;28;20043;-51
2022/04/06 08:59:54;;;;;;;14.63;4.65;;;10.00;99.90;;;;;;5028810;28;20037;-53
2022/04/06 09:02:20;;;;;;;10.13;3.72;;;10.10;99.90;;;;;;5033146;28;20041;-50
2022/04/06 09:04:53;;;;;;;14.50;2.90;;;10.10;99.90;;;;;;5047468;28;20044;-53
2022/04/06 09:07:21;;;;;;;7.90;2.65;;;10.10;99.90;;;;;;5041674;28;20041;-49
2022/04/06 09:09:51;;;;;;;7.82;3.13;;;10.10;99.90;;;;;;5029412;28;20040;-50
2022/04/06 09:12:19;;;;;;;16.52;3.70;;;10.10;99.90;;;;;;5026458;28;20291;-54
2022/04/06 09:14:46;;;;;;;5.82;2.08;;;10.10;99.90;;;;;;5037585;28;20044;-53
2022/04/06 09:17:12;;;;;;;10.75;2.10;;;10.10;99.90;;;;;;5046673;28;20116;-53
2022/04/06 09:19:38;;;;;;;8.40;2.67;;;10.10;99.90;;;;;;5030599;28;20112;-53
2022/04/06 09:22:07;;;;;;;3.75;1.60;;;10.10;99.90;;;;;;5038346;28;20052;-51
2022/04/06 09:24:33;;;;;;;11.18;3.05;;;10.00;99.90;;;;;;5035676;28;20418;-54
2022/04/06 09:27:00;;;;;;;11.93;2.22;;;10.10;99.90;;;;;;5028091;28;20040;-52
2022/04/06 09:29:26;;;;;;;10.02;2.70;;;10.10;99.90;;;;;;5033140;28;20390;-52
2022/04/06 09:31:53;;;;;;;13.13;3.28;;;10.10;99.90;;;;;;5027575;28;20121;-50
2022/04/06 09:34:22;;;;;;;;;;;10.10;99.90;;;;;;5028396;28;20046;-50
2022/04/06 09:36:56;;;;;;;6.72;2.03;;;10.10;99.90;;;;;;5045916;28;20019;-50
2022/04/06 09:39:42;;;;;;;11.10;3.85;;;10.00;99.90;;;;;;5040663;28;20041;-49
2022/04/06 09:42:07;;;;;;;10.68;2.85;;;10.00;99.90;;;;;;5029485;28;20040;-50
2022/04/06 09:47:39;;;;;;;5.77;1.90;;;10.00;99.90;;;;;;5038488;28;20059;-53
2022/04/06 09:50:14;;;;;;;9.32;2.47;;;10.00;99.90;;;;;;5033479;28;20418;-51
2022/04/06 09:52:44;;;;;;;7.65;2.75;;;10.00;99.90;;;;;;5032585;28;20045;-51
2022/04/06 09:55:12;;;;;;;4.82;2.00;;;10.00;99.90;;;;;;5032133;28;20465;-51
2022/04/06 09:57:52;;;;;;;11.27;2.83;;;10.00;99.90;;;;;;5030403;28;20033;-50
2022/04/06 10:00:19;;;;;;;7.82;2.83;;;10.00;99.90;;;;;;5034049;28;20041;-50
2022/04/06 10:02:48;;;;;;;4.32;1.67;;;10.00;99.90;;;;;;5030868;28;20049;-50
2022/04/06 10:05:17;;;;;;;11.02;2.70;;;10.00;99.90;;;;;;5033115;28;20037;-53
2022/04/06 10:07:43;;;;;;;6.88;2.95;;;10.00;99.90;;;;;;5031233;28;20034;-51
2022/04/06 10:10:10;;;;;;;4.30;2.58;;;10.00;99.90;;;;;;5031264;28;20045;-50
2022/04/06 10:12:36;;;;;;;8.77;2.40;;;10.00;99.90;;;;;;5031462;28;20128;-50
2022/04/06 10:15:02;;;;;;;12.43;2.92;;;10.00;99.90;;;;;;5033818;28;20041;-53
2022/04/06 10:17:31;;;;;;;6.85;3.33;;;10.00;99.90;;;;;;5031462;28;20041;-53
2022/04/06 10:20:08;;;;;;;8.02;2.75;;;10.00;99.90;;;;;;5032063;28;20467;-51
2022/04/06 10:23:02;;;;;;;9.30;3.60;;;10.00;99.90;;;;;;5035322;28;20049;-53
2022/04/06 10:25:58;;;;;;;6.28;2.97;;;10.10;99.90;;;;;;5034730;28;20521;-52
2022/04/06 10:28:24;;;;;;;6.75;3.25;;;10.10;99.90;;;;;;5032770;28;20459;-50
2022/04/06 10:31:11;;;;;;;8.33;4.20;;;10.10;99.90;;;;;;5035094;28;20040;-50
2022/04/06 10:33:37;;;;;;;;;;;10.10;99.90;;;;;;5034224;28;20083;-50
2022/04/06 10:36:20;;;;;;;6.28;3.05;;;10.10;99.90;;;;;;5030161;28;20324;-52
2022/04/06 10:39:04;;;;;;;12.65;4.75;;;10.10;99.90;;;;;;5033047;28;20060;-50
2022/04/06 10:41:30;;;;;;;7.70;4.07;;;10.10;99.90;;;;;;5031794;28;20758;-50
2022/04/06 10:43:56;;;;;;;9.88;4.60;;;10.10;99.90;;;;;;5037398;28;20119;-50
2022/04/06 10:46:39;;;;;;;12.15;4.55;;;10.10;99.90;;;;;;5030765;28;20045;-54
2022/04/06 10:49:09;;;;;;;9.10;4.65;;;10.10;99.90;;;;;;5033774;28;20453;-53
2022/04/06 10:51:37;;;;;;;9.80;4.90;;;10.10;99.90;;;;;;5030291;28;20053;-53
2022/04/06 10:54:12;;;;;;;10.98;4.93;;;10.20;99.90;;;;;;5040632;28;20049;-54
2022/04/06 10:56:49;;;;;;;6.80;4.32;;;10.10;99.90;;;;;;5031135;28;20072;-54
2022/04/06 10:59:23;;;;;;;7.65;4.18;;;10.10;99.90;;;;;;5033402;28;20228;-53
2022/04/06 11:02:09;;;;;;;10.45;5.32;;;10.10;99.90;;;;;;5033710;28;20516;-52
2022/04/06 11:04:40;;;;;;;10.00;5.60;;;10.10;99.90;;;;;;5033532;28;20052;-52
2022/04/06 11:07:05;;;;;;;13.80;5.47;;;10.00;99.90;;;;;;5033056;28;20095;-50
2022/04/06 11:12:25;;;;;;;8.45;5.35;;;10.00;99.90;;;;;;5034828;28;20409;-54
2022/04/06 11:14:59;;;;;;;11.05;5.55;;;10.00;99.90;;;;;;5034453;28;20493;-53
2022/04/06 11:17:44;;;;;;;7.82;4.72;;;10.00;99.90;;;;;;5034732;28;20349;-54
2022/04/06 11:20:18;;;;;;;9.05;4.97;;;9.90;99.90;;;;;;5033111;28;20040;-51
2022/04/06 11:22:50;;;;;;;10.45;6.78;;;9.90;99.90;;;;;;5035012;28;20037;-53
2022/04/06 11:25:22;;;;;;;10.30;5.40;;;9.80;99.90;;;;;;5031416;28;20502;-51
2022/04/06 11:27:48;;;;;;;9.75;4.97;;;9.80;99.90;;;;;;5036381;28;20297;-54
2022/04/06 11:30:19;;;;;;;8.65;5.22;;;9.80;99.90;;;;;;5032660;28;20035;-53
2022/04/06 11:32:50;;;;;;;9.55;4.63;;;9.70;99.90;;;;;;5033876;28;20059;-52
2022/04/06 11:35:17;;;;;;;14.27;6.45;;;9.70;99.90;;;;;;5035880;28;20159;-54
2022/04/06 11:37:50;;;;;;;11.30;5.90;;;9.70;99.90;;;;;;5038422;28;20041;-54
2022/04/06 11:40:24;;;;;;;12.77;5.80;;;9.60;99.90;;;;;;5036273;28;20154;-53
2022/04/06 11:42:58;;;;;;;9.15;5.68;;;9.60;99.90;;;;;;5037233;28;20064;-54
2022/04/06 11:45:25;;;;;;;11.65;7.55;;;9.60;99.90;;;;;;5033236;28;20037;-52
2022/04/06 11:48:02;;;;;;;12.30;7.30;;;9.60;99.90;;;;;;5037452;28;20583;-50
2022/04/06 11:50:33;;;;;;;12.68;5.63;;;9.60;99.90;;;;;;5036504;28;20283;-52
2022/04/06 11:53:06;;;;;;;14.77;6.35;;;9.60;99.90;;;;;;5037011;28;20124;-50
2022/04/06 11:55:53;;;;;;;9.93;6.93;;;9.70;99.90;;;;;;5031489;28;20526;-51
2022/04/06 11:58:31;;;;;;;9.23;7.18;;;9.70;99.90;;;;;;5035583;28;20037;-50
2022/04/06 12:01:17;;;;;;;8.93;6.47;;;9.70;99.90;;;;;;5037812;28;20056;-52
2022/04/06 12:03:45;;;;;;;9.10;6.83;;;9.70;99.90;;;;;;5036494;28;20034;-50
2022/04/06 12:06:14;;;;;;;13.18;6.18;;;9.70;99.90;;;;;;5037779;28;20033;-53
2022/04/06 12:08:45;;;;;;;8.25;6.05;;;9.70;99.90;;;;;;5033643;28;20599;-50
2022/04/06 12:11:10;;;;;;;11.32;7.15;;;9.70;99.90;;;;;;5037132;28;20537;-49
2022/04/06 12:13:38;;;;;;;13.03;9.13;;;9.80;99.90;;;;;;5034710;28;20060;-52
2022/04/06 12:16:04;;;;;;;14.93;8.65;;;9.80;99.90;;;;;;5035584;28;20033;-50
2022/04/06 12:18:32;;;;;;;13.40;8.65;;;9.90;99.90;;;;;;5036205;28;20040;-50
2022/04/06 12:20:59;;;;;;;10.48;8.00;;;10.00;99.90;;;;;;5037595;28;20064;-50
2022/04/06 12:23:26;;;;;;;12.05;8.35;;;10.10;99.90;;;;;;5042857;28;20068;-51
2022/04/06 12:25:52;;;;;;;15.38;9.35;;;10.20;99.90;;;;;;5033124;28;20037;-53
2022/04/06 12:28:23;;;;;;;12.35;8.30;;;10.30;99.90;;;;;;5038487;28;20419;-52
2022/04/06 12:31:00;;;;;;;9.43;7.03;;;10.40;99.90;;;;;;5038458;28;20437;-50
2022/04/06 12:33:47;;;;;;;9.82;6.88;;;10.50;99.90;;;;;;5037419;28;20533;-52
2022/04/06 12:36:14;;;;;;;9.32;6.90;;;10.40;99.90;;;;;;5036130;28;20094;-50
2022/04/06 12:39:04;;;;;;;8.40;6.35;;;10.50;99.90;;;;;;5033930;28;20287;-50
2022/04/06 12:41:32;;;;;;;10.15;7.93;;;10.50;99.90;;;;;;5032305;28;20053;-50
2022/04/06 12:43:58;;;;;;;9.85;7.20;;;10.50;99.90;;;;;;5031597;28;20475;-53
2022/04/06 12:46:43;;;;;;;;;;;10.40;99.90;;;;;;5037579;28;20091;-52
2022/04/06 12:49:36;;;;;;;9.90;5.63;;;10.40;99.90;;;;;;5035244;28;20282;-53
2022/04/06 12:52:15;;;;;;;7.18;6.55;;;10.30;99.90;;;;;;5033374;28;20449;-55
2022/04/06 12:54:46;;;;;;;10.40;7.00;;;10.30;99.90;;;;;;5034137;28;20116;-50
2022/04/06 12:57:20;;;;;;;10.02;7.80;;;10.30;99.90;;;;;;5033923;28;20043;-53
2022/04/06 13:00:09;;;;;;;18.85;7.07;;;10.30;99.90;;;;;;5028543;28;20042;-50